sensor_id;sensor_type;location;lat;lon;timestamp;P1;durP1;ratioP1;P2;durP2;ratioP2
33690;SDS011;20026;50.058;18.428;2023-09-19T00:18:55;19.10;;;13.48;;
33690;SDS011;20026;50.058;18.428;2023-09-19T00:21:21;31.88;;;19.45;;
33690;SDS011;20026;50.058;18.428;2023-09-19T00:23:47;35.40;;;19.17;;
33690;SDS011;20026;50.058;18.428;2023-09-19T00:26:14;20.95;;;14.15;;
33690;SDS011;20026;50.058;18.428;2023-09-19T00:28:40;17.73;;;13.75;;
33690;SDS011;20026;50.058;18.428;2023-09-19T00:31:07;21.13;;;14.57;;
33690;SDS011;20026;50.058;18.428;2023-09-19T00:33:33;19.17;;;13.45;;
33690;SDS011;20026;50.058;18.428;2023-09-19T00:35:59;22.02;;;15.38;;
33690;SDS011;20026;50.058;18.428;2023-09-19T00:38:29;30.60;;;18.40;;
33690;SDS011;20026;50.058;18.428;2023-09-19T00:40:56;37.13;;;19.60;;
33690;SDS011;20026;50.058;18.428;2023-09-19T00:43:24;31.80;;;20.10;;
33690;SDS011;20026;50.058;18.428;2023-09-19T00:45:52;44.65;;;25.92;;
33690;SDS011;20026;50.058;18.428;2023-09-19T00:48:19;73.20;;;39.05;;
33690;SDS011;20026;50.058;18.428;2023-09-19T00:50:46;83.18;;;45.45;;
33690;SDS011;20026;50.058;18.428;2023-09-19T00:53:17;76.60;;;43.15;;
33690;SDS011;20026;50.058;18.428;2023-09-19T00:55:44;71.32;;;40.13;;
33690;SDS011;20026;50.058;18.428;2023-09-19T00:58:10;56.80;;;30.20;;
33690;SDS011;20026;50.058;18.428;2023-09-19T01:00:37;36.15;;;21.52;;
33690;SDS011;20026;50.058;18.428;2023-09-19T01:03:03;23.08;;;16.25;;
33690;SDS011;20026;50.058;18.428;2023-09-19T01:05:31;26.95;;;17.60;;
33690;SDS011;20026;50.058;18.428;2023-09-19T01:07:57;28.73;;;17.52;;
33690;SDS011;20026;50.058;18.428;2023-09-19T01:10:23;23.70;;;15.75;;
33690;SDS011;20026;50.058;18.428;2023-09-19T01:13:11;27.35;;;16.70;;
33690;SDS011;20026;50.058;18.428;2023-09-19T01:15:43;23.67;;;16.77;;
33690;SDS011;20026;50.058;18.428;2023-09-19T01:21:14;28.95;;;19.60;;
33690;SDS011;20026;50.058;18.428;2023-09-19T01:29:01;25.23;;;17.42;;
33690;SDS011;20026;50.058;18.428;2023-09-19T01:31:31;27.00;;;17.17;;
33690;SDS011;20026;50.058;18.428;2023-09-19T01:34:01;18.48;;;14.60;;
33690;SDS011;20026;50.058;18.428;2023-09-19T01:36:30;20.90;;;14.25;;
33690;SDS011;20026;50.058;18.428;2023-09-19T01:39:00;16.75;;;13.73;;
33690;SDS011;20026;50.058;18.428;2023-09-19T01:44:23;14.73;;;12.52;;
33690;SDS011;20026;50.058;18.428;2023-09-19T01:46:49;14.55;;;12.88;;
33690;SDS011;20026;50.058;18.428;2023-09-19T01:49:18;17.92;;;14.13;;
33690;SDS011;20026;50.058;18.428;2023-09-19T01:54:18;14.45;;;12.30;;
33690;SDS011;20026;50.058;18.428;2023-09-19T01:56:53;15.27;;;12.18;;
33690;SDS011;20026;50.058;18.428;2023-09-19T01:59:24;15.38;;;12.15;;
33690;SDS011;20026;50.058;18.428;2023-09-19T02:01:55;16.80;;;12.23;;
33690;SDS011;20026;50.058;18.428;2023-09-19T02:04:21;13.73;;;12.30;;
33690;SDS011;20026;50.058;18.428;2023-09-19T02:06:47;14.50;;;11.45;;
33690;SDS011;20026;50.058;18.428;2023-09-19T02:09:16;16.35;;;12.30;;
33690;SDS011;20026;50.058;18.428;2023-09-19T02:11:42;15.05;;;12.75;;
33690;SDS011;20026;50.058;18.428;2023-09-19T02:14:08;16.13;;;12.25;;
33690;SDS011;20026;50.058;18.428;2023-09-19T02:16:35;16.35;;;12.93;;
33690;SDS011;20026;50.058;18.428;2023-09-19T02:19:01;18.23;;;13.30;;
33690;SDS011;20026;50.058;18.428;2023-09-19T02:21:30;16.05;;;14.13;;
33690;SDS011;20026;50.058;18.428;2023-09-19T02:23:57;16.98;;;13.10;;
33690;SDS011;20026;50.058;18.428;2023-09-19T02:26:24;18.60;;;13.98;;
33690;SDS011;20026;50.058;18.428;2023-09-19T02:28:50;18.23;;;13.15;;
33690;SDS011;20026;50.058;18.428;2023-09-19T02:31:16;15.80;;;13.23;;
33690;SDS011;20026;50.058;18.428;2023-09-19T02:33:42;15.90;;;13.68;;
33690;SDS011;20026;50.058;18.428;2023-09-19T02:36:08;17.55;;;14.40;;
33690;SDS011;20026;50.058;18.428;2023-09-19T02:38:35;20.83;;;15.30;;
33690;SDS011;20026;50.058;18.428;2023-09-19T02:41:02;18.15;;;13.50;;
33690;SDS011;20026;50.058;18.428;2023-09-19T02:43:28;17.80;;;13.55;;
33690;SDS011;20026;50.058;18.428;2023-09-19T02:45:55;17.73;;;14.13;;
33690;SDS011;20026;50.058;18.428;2023-09-19T02:48:22;16.50;;;14.32;;
33690;SDS011;20026;50.058;18.428;2023-09-19T02:50:51;16.85;;;15.02;;
33690;SDS011;20026;50.058;18.428;2023-09-19T02:53:17;21.13;;;14.75;;
33690;SDS011;20026;50.058;18.428;2023-09-19T02:55:44;20.35;;;14.63;;
33690;SDS011;20026;50.058;18.428;2023-09-19T02:58:11;18.00;;;14.70;;
33690;SDS011;20026;50.058;18.428;2023-09-19T03:00:37;16.95;;;14.70;;
33690;SDS011;20026;50.058;18.428;2023-09-19T03:03:03;15.20;;;13.55;;
33690;SDS011;20026;50.058;18.428;2023-09-19T03:05:31;18.08;;;13.30;;
33690;SDS011;20026;50.058;18.428;2023-09-19T03:07:58;15.73;;;13.20;;
33690;SDS011;20026;50.058;18.428;2023-09-19T03:10:25;16.75;;;14.43;;
33690;SDS011;20026;50.058;18.428;2023-09-19T03:12:53;14.73;;;13.18;;
33690;SDS011;20026;50.058;18.428;2023-09-19T03:15:19;16.42;;;13.73;;
33690;SDS011;20026;50.058;18.428;2023-09-19T03:17:46;16.05;;;14.35;;
33690;SDS011;20026;50.058;18.428;2023-09-19T03:20:17;21.25;;;15.30;;
33690;SDS011;20026;50.058;18.428;2023-09-19T03:22:43;17.55;;;14.63;;
33690;SDS011;20026;50.058;18.428;2023-09-19T03:25:09;19.42;;;15.60;;
33690;SDS011;20026;50.058;18.428;2023-09-19T03:27:37;19.05;;;14.98;;
33690;SDS011;20026;50.058;18.428;2023-09-19T03:30:03;17.58;;;15.68;;
33690;SDS011;20026;50.058;18.428;2023-09-19T03:32:33;19.35;;;16.35;;
33690;SDS011;20026;50.058;18.428;2023-09-19T03:34:59;19.30;;;15.80;;
33690;SDS011;20026;50.058;18.428;2023-09-19T03:37:25;18.20;;;16.17;;
33690;SDS011;20026;50.058;18.428;2023-09-19T03:39:51;21.67;;;15.88;;
33690;SDS011;20026;50.058;18.428;2023-09-19T03:42:17;21.77;;;15.80;;
33690;SDS011;20026;50.058;18.428;2023-09-19T03:44:50;18.77;;;15.98;;
33690;SDS011;20026;50.058;18.428;2023-09-19T03:47:17;19.23;;;16.33;;
33690;SDS011;20026;50.058;18.428;2023-09-19T03:49:44;18.73;;;16.15;;
33690;SDS011;20026;50.058;18.428;2023-09-19T03:52:10;23.83;;;15.70;;
33690;SDS011;20026;50.058;18.428;2023-09-19T03:54:36;18.55;;;15.18;;
33690;SDS011;20026;50.058;18.428;2023-09-19T03:57:03;21.30;;;15.43;;
33690;SDS011;20026;50.058;18.428;2023-09-19T03:59:29;20.92;;;15.85;;
33690;SDS011;20026;50.058;18.428;2023-09-19T04:01:55;20.35;;;16.33;;
33690;SDS011;20026;50.058;18.428;2023-09-19T04:04:23;19.88;;;16.38;;
33690;SDS011;20026;50.058;18.428;2023-09-19T04:06:50;21.00;;;16.75;;
33690;SDS011;20026;50.058;18.428;2023-09-19T04:09:17;20.30;;;15.40;;
33690;SDS011;20026;50.058;18.428;2023-09-19T04:11:43;17.92;;;14.43;;
33690;SDS011;20026;50.058;18.428;2023-09-19T04:14:09;15.38;;;13.82;;
33690;SDS011;20026;50.058;18.428;2023-09-19T04:16:35;15.13;;;12.82;;
33690;SDS011;20026;50.058;18.428;2023-09-19T04:19:01;13.43;;;11.07;;
33690;SDS011;20026;50.058;18.428;2023-09-19T04:21:28;13.45;;;10.07;;
33690;SDS011;20026;50.058;18.428;2023-09-19T04:23:54;10.88;;;8.77;;
33690;SDS011;20026;50.058;18.428;2023-09-19T04:26:20;13.13;;;9.52;;
33690;SDS011;20026;50.058;18.428;2023-09-19T04:28:46;11.82;;;9.52;;
33690;SDS011;20026;50.058;18.428;2023-09-19T04:31:13;9.40;;;7.25;;
33690;SDS011;20026;50.058;18.428;2023-09-19T04:33:39;9.00;;;6.55;;
33690;SDS011;20026;50.058;18.428;2023-09-19T04:36:05;12.90;;;6.80;;
33690;SDS011;20026;50.058;18.428;2023-09-19T04:38:32;7.85;;;6.45;;
33690;SDS011;20026;50.058;18.428;2023-09-19T04:40:58;8.30;;;6.55;;
33690;SDS011;20026;50.058;18.428;2023-09-19T04:43:25;11.55;;;6.68;;
33690;SDS011;20026;50.058;18.428;2023-09-19T04:45:51;9.20;;;6.68;;
33690;SDS011;20026;50.058;18.428;2023-09-19T04:48:20;7.22;;;6.32;;
33690;SDS011;20026;50.058;18.428;2023-09-19T04:50:48;8.82;;;6.40;;
33690;SDS011;20026;50.058;18.428;2023-09-19T04:53:14;7.93;;;6.15;;
33690;SDS011;20026;50.058;18.428;2023-09-19T04:55:40;11.63;;;7.28;;
33690;SDS011;20026;50.058;18.428;2023-09-19T04:58:06;11.20;;;7.10;;
33690;SDS011;20026;50.058;18.428;2023-09-19T05:00:32;8.25;;;6.70;;
33690;SDS011;20026;50.058;18.428;2023-09-19T05:03:00;7.47;;;5.82;;
33690;SDS011;20026;50.058;18.428;2023-09-19T05:05:29;8.77;;;6.22;;
33690;SDS011;20026;50.058;18.428;2023-09-19T05:07:55;7.80;;;5.75;;
33690;SDS011;20026;50.058;18.428;2023-09-19T05:10:21;6.82;;;5.03;;
33690;SDS011;20026;50.058;18.428;2023-09-19T05:12:47;5.38;;;4.60;;
33690;SDS011;20026;50.058;18.428;2023-09-19T05:15:19;6.37;;;4.30;;
33690;SDS011;20026;50.058;18.428;2023-09-19T05:20:12;4.65;;;3.03;;
33690;SDS011;20026;50.058;18.428;2023-09-19T05:22:41;8.45;;;4.38;;
33690;SDS011;20026;50.058;18.428;2023-09-19T05:25:08;3.38;;;2.83;;
33690;SDS011;20026;50.058;18.428;2023-09-19T05:27:34;7.93;;;3.03;;
33690;SDS011;20026;50.058;18.428;2023-09-19T05:30:00;5.13;;;2.40;;
33690;SDS011;20026;50.058;18.428;2023-09-19T05:32:26;4.07;;;2.10;;
33690;SDS011;20026;50.058;18.428;2023-09-19T05:34:52;3.97;;;2.50;;
33690;SDS011;20026;50.058;18.428;2023-09-19T05:37:21;3.95;;;2.40;;
33690;SDS011;20026;50.058;18.428;2023-09-19T05:39:47;3.13;;;2.15;;
33690;SDS011;20026;50.058;18.428;2023-09-19T05:42:13;7.50;;;2.20;;
33690;SDS011;20026;50.058;18.428;2023-09-19T05:44:39;3.22;;;2.15;;
33690;SDS011;20026;50.058;18.428;2023-09-19T05:47:05;2.88;;;2.15;;
33690;SDS011;20026;50.058;18.428;2023-09-19T05:49:34;3.17;;;1.83;;
33690;SDS011;20026;50.058;18.428;2023-09-19T05:52:03;2.97;;;2.30;;
33690;SDS011;20026;50.058;18.428;2023-09-19T05:54:29;2.95;;;2.30;;
33690;SDS011;20026;50.058;18.428;2023-09-19T05:56:55;5.18;;;2.47;;
33690;SDS011;20026;50.058;18.428;2023-09-19T05:59:22;5.38;;;2.30;;
33690;SDS011;20026;50.058;18.428;2023-09-19T06:01:49;4.00;;;2.55;;
33690;SDS011;20026;50.058;18.428;2023-09-19T06:04:17;4.80;;;2.33;;
33690;SDS011;20026;50.058;18.428;2023-09-19T06:06:44;4.55;;;3.30;;
33690;SDS011;20026;50.058;18.428;2023-09-19T06:09:12;4.88;;;3.03;;
33690;SDS011;20026;50.058;18.428;2023-09-19T06:11:38;6.60;;;3.00;;
33690;SDS011;20026;50.058;18.428;2023-09-19T06:14:05;5.50;;;3.20;;
33690;SDS011;20026;50.058;18.428;2023-09-19T06:16:31;6.05;;;3.00;;
33690;SDS011;20026;50.058;18.428;2023-09-19T06:18:57;8.05;;;4.10;;
33690;SDS011;20026;50.058;18.428;2023-09-19T06:21:25;9.45;;;4.75;;
33690;SDS011;20026;50.058;18.428;2023-09-19T06:23:51;12.95;;;8.63;;
33690;SDS011;20026;50.058;18.428;2023-09-19T06:26:17;77.15;;;61.47;;
33690;SDS011;20026;50.058;18.428;2023-09-19T06:28:44;4.88;;;3.60;;
33690;SDS011;20026;50.058;18.428;2023-09-19T06:31:10;4.35;;;3.20;;
33690;SDS011;20026;50.058;18.428;2023-09-19T06:33:36;4.97;;;3.28;;
33690;SDS011;20026;50.058;18.428;2023-09-19T06:36:05;7.05;;;3.28;;
33690;SDS011;20026;50.058;18.428;2023-09-19T06:38:32;7.85;;;3.50;;
33690;SDS011;20026;50.058;18.428;2023-09-19T06:41:01;5.97;;;4.07;;
33690;SDS011;20026;50.058;18.428;2023-09-19T06:43:30;7.03;;;4.35;;
33690;SDS011;20026;50.058;18.428;2023-09-19T06:45:56;6.90;;;4.63;;
33690;SDS011;20026;50.058;18.428;2023-09-19T06:48:22;8.57;;;4.47;;
33690;SDS011;20026;50.058;18.428;2023-09-19T06:50:50;6.75;;;3.88;;
33690;SDS011;20026;50.058;18.428;2023-09-19T06:53:16;5.57;;;3.90;;
33690;SDS011;20026;50.058;18.428;2023-09-19T06:55:42;8.20;;;4.18;;
33690;SDS011;20026;50.058;18.428;2023-09-19T06:58:10;8.68;;;3.75;;
33690;SDS011;20026;50.058;18.428;2023-09-19T07:00:36;6.03;;;4.43;;
33690;SDS011;20026;50.058;18.428;2023-09-19T07:03:04;9.10;;;4.57;;
33690;SDS011;20026;50.058;18.428;2023-09-19T07:05:33;6.47;;;3.88;;
33690;SDS011;20026;50.058;18.428;2023-09-19T07:08:04;11.68;;;5.00;;
33690;SDS011;20026;50.058;18.428;2023-09-19T07:10:31;8.57;;;5.13;;
33690;SDS011;20026;50.058;18.428;2023-09-19T07:15:25;7.82;;;5.10;;
33690;SDS011;20026;50.058;18.428;2023-09-19T07:17:51;11.32;;;6.55;;
33690;SDS011;20026;50.058;18.428;2023-09-19T07:20:18;8.35;;;6.13;;
33690;SDS011;20026;50.058;18.428;2023-09-19T07:22:45;9.85;;;5.85;;
33690;SDS011;20026;50.058;18.428;2023-09-19T07:25:12;8.93;;;5.97;;
33690;SDS011;20026;50.058;18.428;2023-09-19T07:27:39;7.82;;;5.35;;
33690;SDS011;20026;50.058;18.428;2023-09-19T07:30:05;5.93;;;4.80;;
33690;SDS011;20026;50.058;18.428;2023-09-19T07:32:31;7.40;;;4.68;;
33690;SDS011;20026;50.058;18.428;2023-09-19T07:34:57;14.18;;;5.10;;
33690;SDS011;20026;50.058;18.428;2023-09-19T07:37:23;9.45;;;5.88;;
33690;SDS011;20026;50.058;18.428;2023-09-19T07:39:50;9.85;;;7.20;;
33690;SDS011;20026;50.058;18.428;2023-09-19T07:42:16;9.98;;;5.68;;
33690;SDS011;20026;50.058;18.428;2023-09-19T07:44:43;7.50;;;5.10;;
33690;SDS011;20026;50.058;18.428;2023-09-19T07:47:13;8.07;;;4.32;;
33690;SDS011;20026;50.058;18.428;2023-09-19T07:49:39;8.40;;;4.90;;
33690;SDS011;20026;50.058;18.428;2023-09-19T07:52:07;8.18;;;4.60;;
33690;SDS011;20026;50.058;18.428;2023-09-19T07:54:33;5.97;;;4.55;;
33690;SDS011;20026;50.058;18.428;2023-09-19T07:57:00;4.38;;;3.55;;
33690;SDS011;20026;50.058;18.428;2023-09-19T07:59:26;6.70;;;3.63;;
33690;SDS011;20026;50.058;18.428;2023-09-19T08:01:53;5.05;;;3.35;;
33690;SDS011;20026;50.058;18.428;2023-09-19T08:04:19;4.57;;;3.42;;
33690;SDS011;20026;50.058;18.428;2023-09-19T08:06:45;6.72;;;3.63;;
33690;SDS011;20026;50.058;18.428;2023-09-19T08:09:11;4.78;;;3.30;;
33690;SDS011;20026;50.058;18.428;2023-09-19T08:11:41;5.85;;;3.25;;
33690;SDS011;20026;50.058;18.428;2023-09-19T08:14:07;4.63;;;3.25;;
33690;SDS011;20026;50.058;18.428;2023-09-19T08:16:34;3.55;;;2.85;;
33690;SDS011;20026;50.058;18.428;2023-09-19T08:19:00;5.93;;;3.63;;
33690;SDS011;20026;50.058;18.428;2023-09-19T08:21:26;3.47;;;2.92;;
33690;SDS011;20026;50.058;18.428;2023-09-19T08:23:54;6.20;;;3.22;;
33690;SDS011;20026;50.058;18.428;2023-09-19T08:26:21;4.20;;;3.13;;
33690;SDS011;20026;50.058;18.428;2023-09-19T08:28:49;5.30;;;3.22;;
33690;SDS011;20026;50.058;18.428;2023-09-19T08:31:16;3.83;;;3.50;;
33690;SDS011;20026;50.058;18.428;2023-09-19T08:33:42;6.38;;;3.58;;
33690;SDS011;20026;50.058;18.428;2023-09-19T08:36:13;5.70;;;3.15;;
33690;SDS011;20026;50.058;18.428;2023-09-19T08:38:40;4.65;;;3.30;;
33690;SDS011;20026;50.058;18.428;2023-09-19T08:41:07;6.32;;;3.63;;
33690;SDS011;20026;50.058;18.428;2023-09-19T08:43:34;5.88;;;3.28;;
33690;SDS011;20026;50.058;18.428;2023-09-19T08:46:10;6.93;;;3.45;;
33690;SDS011;20026;50.058;18.428;2023-09-19T08:48:47;6.45;;;3.60;;
33690;SDS011;20026;50.058;18.428;2023-09-19T08:51:17;53.00;;;25.52;;
33690;SDS011;20026;50.058;18.428;2023-09-19T08:56:44;13.13;;;11.70;;
33690;SDS011;20026;50.058;18.428;2023-09-19T08:59:12;8.75;;;6.15;;
33690;SDS011;20026;50.058;18.428;2023-09-19T09:01:38;7.07;;;5.53;;
33690;SDS011;20026;50.058;18.428;2023-09-19T09:04:08;19.30;;;14.63;;
33690;SDS011;20026;50.058;18.428;2023-09-19T09:06:38;21.08;;;14.43;;
33690;SDS011;20026;50.058;18.428;2023-09-19T09:09:08;14.02;;;12.00;;
33690;SDS011;20026;50.058;18.428;2023-09-19T09:11:35;6.63;;;4.80;;
33690;SDS011;20026;50.058;18.428;2023-09-19T09:14:05;9.27;;;4.53;;
33690;SDS011;20026;50.058;18.428;2023-09-19T09:16:32;7.82;;;4.90;;
33690;SDS011;20026;50.058;18.428;2023-09-19T09:18:58;5.90;;;4.35;;
33690;SDS011;20026;50.058;18.428;2023-09-19T09:21:24;5.68;;;4.38;;
33690;SDS011;20026;50.058;18.428;2023-09-19T09:23:51;6.80;;;4.00;;
33690;SDS011;20026;50.058;18.428;2023-09-19T09:29:04;7.97;;;4.38;;
33690;SDS011;20026;50.058;18.428;2023-09-19T09:31:33;5.15;;;4.57;;
33690;SDS011;20026;50.058;18.428;2023-09-19T09:33:59;4.72;;;4.18;;
33690;SDS011;20026;50.058;18.428;2023-09-19T09:36:35;6.45;;;4.30;;
33690;SDS011;20026;50.058;18.428;2023-09-19T09:39:02;5.03;;;3.90;;
33690;SDS011;20026;50.058;18.428;2023-09-19T09:41:41;7.25;;;4.68;;
33690;SDS011;20026;50.058;18.428;2023-09-19T09:44:14;4.82;;;4.00;;
33690;SDS011;20026;50.058;18.428;2023-09-19T09:46:44;8.88;;;7.25;;
33690;SDS011;20026;50.058;18.428;2023-09-19T09:49:25;6.60;;;5.93;;
33690;SDS011;20026;50.058;18.428;2023-09-19T09:52:06;7.40;;;5.03;;
33690;SDS011;20026;50.058;18.428;2023-09-19T09:55:01;6.45;;;4.82;;
33690;SDS011;20026;50.058;18.428;2023-09-19T09:57:32;8.25;;;4.85;;
33690;SDS011;20026;50.058;18.428;2023-09-19T09:59:59;5.97;;;4.65;;
33690;SDS011;20026;50.058;18.428;2023-09-19T10:02:41;6.22;;;4.93;;
33690;SDS011;20026;50.058;18.428;2023-09-19T10:05:14;6.13;;;4.97;;
33690;SDS011;20026;50.058;18.428;2023-09-19T10:07:40;7.47;;;6.30;;
33690;SDS011;20026;50.058;18.428;2023-09-19T10:10:29;8.10;;;7.13;;
33690;SDS011;20026;50.058;18.428;2023-09-19T10:13:02;10.65;;;7.05;;
33690;SDS011;20026;50.058;18.428;2023-09-19T10:15:29;11.45;;;8.02;;
33690;SDS011;20026;50.058;18.428;2023-09-19T10:17:57;8.80;;;7.93;;
33690;SDS011;20026;50.058;18.428;2023-09-19T10:20:25;10.70;;;8.07;;
33690;SDS011;20026;50.058;18.428;2023-09-19T10:23:00;16.40;;;10.68;;
33690;SDS011;20026;50.058;18.428;2023-09-19T10:25:27;13.98;;;9.10;;
33690;SDS011;20026;50.058;18.428;2023-09-19T10:27:57;19.52;;;11.57;;
33690;SDS011;20026;50.058;18.428;2023-09-19T10:30:25;8.52;;;7.03;;
33690;SDS011;20026;50.058;18.428;2023-09-19T10:32:56;8.73;;;6.60;;
33690;SDS011;20026;50.058;18.428;2023-09-19T10:35:23;14.43;;;10.60;;
33690;SDS011;20026;50.058;18.428;2023-09-19T10:37:50;10.70;;;7.50;;
33690;SDS011;20026;50.058;18.428;2023-09-19T10:40:16;8.27;;;6.40;;
33690;SDS011;20026;50.058;18.428;2023-09-19T10:42:45;10.48;;;6.60;;
33690;SDS011;20026;50.058;18.428;2023-09-19T10:45:11;6.72;;;5.43;;
33690;SDS011;20026;50.058;18.428;2023-09-19T10:47:38;7.03;;;5.15;;
33690;SDS011;20026;50.058;18.428;2023-09-19T10:50:05;8.23;;;6.30;;
33690;SDS011;20026;50.058;18.428;2023-09-19T10:52:38;5.80;;;5.20;;
33690;SDS011;20026;50.058;18.428;2023-09-19T10:55:06;7.57;;;4.77;;
33690;SDS011;20026;50.058;18.428;2023-09-19T10:57:34;5.43;;;4.93;;
33690;SDS011;20026;50.058;18.428;2023-09-19T11:03:01;6.68;;;4.00;;
33690;SDS011;20026;50.058;18.428;2023-09-19T11:05:32;4.22;;;3.53;;
33690;SDS011;20026;50.058;18.428;2023-09-19T11:07:59;8.82;;;4.53;;
33690;SDS011;20026;50.058;18.428;2023-09-19T11:10:48;6.80;;;4.60;;
33690;SDS011;20026;50.058;18.428;2023-09-19T11:13:25;7.35;;;4.82;;
33690;SDS011;20026;50.058;18.428;2023-09-19T11:27:10;3.95;;;3.28;;
33690;SDS011;20026;50.058;18.428;2023-09-19T11:29:39;6.15;;;4.18;;
33690;SDS011;20026;50.058;18.428;2023-09-19T11:32:06;8.68;;;3.60;;
33690;SDS011;20026;50.058;18.428;2023-09-19T11:34:42;5.70;;;2.72;;
33690;SDS011;20026;50.058;18.428;2023-09-19T11:39:38;6.55;;;4.18;;
33690;SDS011;20026;50.058;18.428;2023-09-19T11:44:52;5.07;;;3.78;;
33690;SDS011;20026;50.058;18.428;2023-09-19T11:47:21;5.10;;;3.55;;
33690;SDS011;20026;50.058;18.428;2023-09-19T11:49:50;4.25;;;3.53;;
33690;SDS011;20026;50.058;18.428;2023-09-19T11:52:21;5.63;;;3.00;;
33690;SDS011;20026;50.058;18.428;2023-09-19T11:54:55;5.65;;;2.67;;
33690;SDS011;20026;50.058;18.428;2023-09-19T11:57:24;6.90;;;2.85;;
33690;SDS011;20026;50.058;18.428;2023-09-19T11:59:50;5.47;;;2.78;;
33690;SDS011;20026;50.058;18.428;2023-09-19T12:02:27;3.75;;;2.40;;
33690;SDS011;20026;50.058;18.428;2023-09-19T12:04:57;4.55;;;2.65;;
33690;SDS011;20026;50.058;18.428;2023-09-19T12:07:24;4.90;;;2.67;;
33690;SDS011;20026;50.058;18.428;2023-09-19T12:10:02;4.88;;;2.40;;
33690;SDS011;20026;50.058;18.428;2023-09-19T12:12:29;4.55;;;2.55;;
33690;SDS011;20026;50.058;18.428;2023-09-19T12:14:57;4.05;;;2.13;;
33690;SDS011;20026;50.058;18.428;2023-09-19T12:17:24;3.25;;;2.10;;
33690;SDS011;20026;50.058;18.428;2023-09-19T12:20:01;4.43;;;2.55;;
33690;SDS011;20026;50.058;18.428;2023-09-19T12:25:08;5.72;;;2.20;;
33690;SDS011;20026;50.058;18.428;2023-09-19T12:27:42;2.95;;;2.15;;
33690;SDS011;20026;50.058;18.428;2023-09-19T12:30:09;6.15;;;2.40;;
33690;SDS011;20026;50.058;18.428;2023-09-19T12:32:39;4.20;;;2.28;;
33690;SDS011;20026;50.058;18.428;2023-09-19T12:35:06;4.30;;;1.80;;
33690;SDS011;20026;50.058;18.428;2023-09-19T12:37:44;2.20;;;1.60;;
33690;SDS011;20026;50.058;18.428;2023-09-19T12:40:18;4.97;;;1.70;;
33690;SDS011;20026;50.058;18.428;2023-09-19T12:42:52;3.50;;;1.88;;
33690;SDS011;20026;50.058;18.428;2023-09-19T12:45:23;4.82;;;1.67;;
33690;SDS011;20026;50.058;18.428;2023-09-19T12:50:58;3.33;;;1.77;;
33690;SDS011;20026;50.058;18.428;2023-09-19T12:53:25;1.58;;;1.45;;
33690;SDS011;20026;50.058;18.428;2023-09-19T12:58:20;3.65;;;1.60;;
33690;SDS011;20026;50.058;18.428;2023-09-19T13:00:46;2.40;;;1.80;;
33690;SDS011;20026;50.058;18.428;2023-09-19T13:03:13;2.17;;;1.55;;
33690;SDS011;20026;50.058;18.428;2023-09-19T13:05:56;3.05;;;1.60;;
33690;SDS011;20026;50.058;18.428;2023-09-19T13:08:28;2.88;;;1.40;;
33690;SDS011;20026;50.058;18.428;2023-09-19T13:11:06;4.45;;;1.65;;
33690;SDS011;20026;50.058;18.428;2023-09-19T13:13:36;7.60;;;1.95;;
33690;SDS011;20026;50.058;18.428;2023-09-19T13:16:02;5.10;;;1.77;;
33690;SDS011;20026;50.058;18.428;2023-09-19T13:18:43;2.97;;;1.50;;
33690;SDS011;20026;50.058;18.428;2023-09-19T13:21:11;4.20;;;1.92;;
33690;SDS011;20026;50.058;18.428;2023-09-19T13:23:43;4.50;;;2.17;;
33690;SDS011;20026;50.058;18.428;2023-09-19T13:26:09;3.63;;;1.80;;
33690;SDS011;20026;50.058;18.428;2023-09-19T13:28:37;4.63;;;1.92;;
33690;SDS011;20026;50.058;18.428;2023-09-19T13:31:04;3.08;;;2.00;;
33690;SDS011;20026;50.058;18.428;2023-09-19T13:33:30;3.75;;;1.95;;
33690;SDS011;20026;50.058;18.428;2023-09-19T13:35:57;5.32;;;1.98;;
33690;SDS011;20026;50.058;18.428;2023-09-19T13:38:23;6.18;;;2.30;;
33690;SDS011;20026;50.058;18.428;2023-09-19T13:40:49;7.32;;;1.90;;
33690;SDS011;20026;50.058;18.428;2023-09-19T13:43:17;3.25;;;2.20;;
33690;SDS011;20026;50.058;18.428;2023-09-19T13:45:43;3.28;;;2.00;;
33690;SDS011;20026;50.058;18.428;2023-09-19T13:48:09;4.10;;;2.22;;
33690;SDS011;20026;50.058;18.428;2023-09-19T13:50:36;6.82;;;2.22;;
33690;SDS011;20026;50.058;18.428;2023-09-19T13:53:07;3.33;;;1.60;;
33690;SDS011;20026;50.058;18.428;2023-09-19T13:55:33;4.38;;;2.05;;
33690;SDS011;20026;50.058;18.428;2023-09-19T13:57:59;3.80;;;1.95;;
33690;SDS011;20026;50.058;18.428;2023-09-19T14:00:25;5.28;;;1.98;;
33690;SDS011;20026;50.058;18.428;2023-09-19T14:02:52;3.17;;;2.30;;
33690;SDS011;20026;50.058;18.428;2023-09-19T14:05:18;5.47;;;2.05;;
33690;SDS011;20026;50.058;18.428;2023-09-19T14:07:45;3.10;;;1.85;;
33690;SDS011;20026;50.058;18.428;2023-09-19T14:10:11;3.15;;;2.00;;
33690;SDS011;20026;50.058;18.428;2023-09-19T14:12:38;3.40;;;1.73;;
33690;SDS011;20026;50.058;18.428;2023-09-19T14:15:08;6.40;;;1.85;;
33690;SDS011;20026;50.058;18.428;2023-09-19T14:17:34;3.80;;;2.15;;
33690;SDS011;20026;50.058;18.428;2023-09-19T14:20:00;3.80;;;2.20;;
33690;SDS011;20026;50.058;18.428;2023-09-19T14:22:26;1.63;;;1.52;;
33690;SDS011;20026;50.058;18.428;2023-09-19T14:24:52;6.18;;;2.22;;
33690;SDS011;20026;50.058;18.428;2023-09-19T14:27:18;4.97;;;2.13;;
33690;SDS011;20026;50.058;18.428;2023-09-19T14:29:44;4.50;;;2.50;;
33690;SDS011;20026;50.058;18.428;2023-09-19T14:32:10;4.85;;;2.47;;
33690;SDS011;20026;50.058;18.428;2023-09-19T14:34:37;4.95;;;3.17;;
33690;SDS011;20026;50.058;18.428;2023-09-19T14:37:07;6.30;;;3.85;;
33690;SDS011;20026;50.058;18.428;2023-09-19T14:39:33;5.32;;;3.47;;
33690;SDS011;20026;50.058;18.428;2023-09-19T14:41:59;13.65;;;10.57;;
33690;SDS011;20026;50.058;18.428;2023-09-19T14:44:25;58.88;;;28.55;;
33690;SDS011;20026;50.058;18.428;2023-09-19T14:46:53;121.57;;;67.97;;
33690;SDS011;20026;50.058;18.428;2023-09-19T14:49:19;40.33;;;22.23;;
33690;SDS011;20026;50.058;18.428;2023-09-19T14:51:45;106.25;;;63.95;;
33690;SDS011;20026;50.058;18.428;2023-09-19T14:54:14;220.73;;;92.78;;
33690;SDS011;20026;50.058;18.428;2023-09-19T14:56:44;118.72;;;51.67;;
33690;SDS011;20026;50.058;18.428;2023-09-19T14:59:10;11.90;;;6.50;;
33690;SDS011;20026;50.058;18.428;2023-09-19T15:01:36;7.82;;;4.43;;
33690;SDS011;20026;50.058;18.428;2023-09-19T15:04:03;5.63;;;3.30;;
33690;SDS011;20026;50.058;18.428;2023-09-19T15:06:29;4.43;;;2.97;;
33690;SDS011;20026;50.058;18.428;2023-09-19T15:08:55;4.38;;;2.92;;
33690;SDS011;20026;50.058;18.428;2023-09-19T15:11:22;3.15;;;2.85;;
33690;SDS011;20026;50.058;18.428;2023-09-19T15:13:51;3.13;;;2.75;;
33690;SDS011;20026;50.058;18.428;2023-09-19T15:16:18;3.25;;;3.05;;
33690;SDS011;20026;50.058;18.428;2023-09-19T15:18:45;3.95;;;3.65;;
33690;SDS011;20026;50.058;18.428;2023-09-19T15:21:14;5.95;;;3.92;;
33690;SDS011;20026;50.058;18.428;2023-09-19T15:23:41;2.47;;;1.90;;
33690;SDS011;20026;50.058;18.428;2023-09-19T15:26:10;2.33;;;1.95;;
33690;SDS011;20026;50.058;18.428;2023-09-19T15:28:39;2.45;;;2.03;;
33690;SDS011;20026;50.058;18.428;2023-09-19T15:31:07;2.92;;;2.38;;
33690;SDS011;20026;50.058;18.428;2023-09-19T15:33:33;2.97;;;2.40;;
33690;SDS011;20026;50.058;18.428;2023-09-19T15:36:10;3.80;;;2.47;;
33690;SDS011;20026;50.058;18.428;2023-09-19T15:41:22;3.15;;;1.90;;
33690;SDS011;20026;50.058;18.428;2023-09-19T15:43:48;2.50;;;2.30;;